Gerton, NC

09:29 AM EDT on Lulju 29, 2015 (GMT -0400)
Rabbit Run Creekside | | Change Station
CLOSE
Current Station
Personal Weather Stations
Location: Gerton, NC
Elevation: 2835 ft
Nearby Weather Stations

Elev 2835 ft 35.48 °N, 82.35 °W | Updated 12 minutes ago

ċar
ċar
71.3 °F
Feels Like 71 °F
N
0.0
rih varjabbli rih from Nofs in-nhar
Gusts 2.0 mph

Illum
High -- | Low -- °F
--% Chance of Precip.
Yesterday
High -- | Low -- °F
Precip. -- in
6:35 AM 8:35 PM
Waxing Gibbous, 95% visible
pressjoni 30.03 in
vizibilita 9.0 mili
s ċar
indici ta' shana 71 °F
punt ta' nida 66 °F
umdita 82%
Rainfall 0.00 in
Snow Depth Not available.
UV 2 out of 12
Pollen 3.70 out of 12
Air Quality Not available.
Flu Activity Not available.
METAR KAVL 291254Z 00000KT 9SM CLR 22/19 A3011 RMK AO2 SLP168 T02220194

More Conditions Fewer Conditions

pressjoni 30.03 in
vizibilita 9.0 mili
s ċar
indici ta' shana 71 °F
punt ta' nida 66 °F
umdita 82%
Rainfall 0.00 in
Snow Depth Not available.
UV 2 out of 12
Pollen 3.70 out of 12
Air Quality Not available.
Flu Activity Not available.
METAR KAVL 291254Z 00000KT 9SM CLR 22/19 A3011 RMK AO2 SLP168 T02220194

More Conditions Fewer Conditions

10-Day Weather Forecast

×

Almanac

Astronomy

Jul. 29, 2015 Rise Set
Actual Time
Civil Twilight
Nautical Twilight
Astronomical Twilight
Moon
Length Of Visible Light
Length of Day
Tomorrow will be .
, % of the Moon is Illuminated

Today's Extremes

State Highs State Lows

Community

WunderPhotos

Upload Photos

1,842,092 photos uploaded!

WunderBlogs® & News

Nearby

Air Quality

  Air Quality AQ Index Pollutant
Not available.

Snow Depth

Station Depth Elevation

Earthquake Activity

City Distance Mag. Time & Date
Minimum magnitude displayed is 2.5.

Coastal Water Temperatures

Post temperatura

Stations

Nearby Weather Stations

Station Location Temp kesha tar-rih punt ta' nida umdita rih Precip. Elev aggornat Type